Time;durP1;ratioP1;P1;durP2;ratioP2;P2;SDS_P1;SDS_P2;PMS_P1;PMS_P2;Temp;Humidity;BMP_temperature;BMP_pressure;BME280_temperature;BME280_humidity;BME280_pressure;Samples;Min_cycle;Max_cycle;Signal;HPM_P1;HPM_P2
2022/09/12 00:01:06;;;;;;;2.95;1.40;;;15.50;60.90;;;;;;4876589;29;20210;-35
2022/09/12 00:03:39;;;;;;;3.05;1.88;;;15.50;61.10;;;;;;4876173;29;20205;-35
2022/09/12 00:06:16;;;;;;;2.38;1.65;;;15.50;61.00;;;;;;4876973;29;20228;-36
2022/09/12 00:08:47;;;;;;;1.95;1.70;;;15.60;61.00;;;;;;4878295;29;20221;-36
2022/09/12 00:11:18;;;;;;;2.42;1.75;;;15.60;61.20;;;;;;4876418;29;20216;-36
2022/09/12 00:13:48;;;;;;;1.55;1.42;;;15.60;61.30;;;;;;4875820;29;20200;-36
2022/09/12 00:16:21;;;;;;;2.55;2.00;;;15.60;61.20;;;;;;4875815;29;20225;-36
2022/09/12 00:18:54;;;;;;;1.73;1.55;;;15.70;61.30;;;;;;4875921;29;20221;-35
2022/09/12 00:21:26;;;;;;;2.15;1.95;;;15.70;61.20;;;;;;4857236;29;20210;-35
2022/09/12 00:23:57;;;;;;;1.70;1.60;;;15.70;61.20;;;;;;4866369;29;20201;-35
2022/09/12 00:26:27;;;;;;;2.63;1.73;;;15.80;61.20;;;;;;4875386;29;20232;-36
2022/09/12 00:28:58;;;;;;;2.20;1.73;;;15.80;61.20;;;;;;4876143;29;20225;-36
2022/09/12 00:31:29;;;;;;;3.10;1.70;;;15.80;61.20;;;;;;4876118;29;20201;-36
2022/09/12 00:34:02;;;;;;;2.50;1.88;;;15.80;61.30;;;;;;4876768;29;20658;-47
2022/09/12 00:36:33;;;;;;;1.77;1.45;;;15.90;61.30;;;;;;4876078;29;20226;-35
2022/09/12 00:39:04;;;;;;;2.08;1.67;;;15.90;61.30;;;;;;4876674;29;20201;-39
2022/09/12 00:41:37;;;;;;;3.15;2.03;;;15.90;61.20;;;;;;4876197;29;20209;-36
2022/09/12 00:44:50;;;;;;;1.70;1.40;;;15.90;61.40;;;;;;4876705;29;20198;-37
2022/09/12 00:47:25;;;;;;;1.65;1.55;;;16.00;61.60;;;;;;4879031;29;20225;-38
2022/09/12 00:50:04;;;;;;;2.80;1.88;;;16.10;61.40;;;;;;4871536;29;20202;-37
2022/09/12 00:52:41;;;;;;;2.88;1.80;;;16.10;61.40;;;;;;4879352;29;20208;-35
2022/09/12 00:55:14;;;;;;;1.90;1.70;;;16.10;61.40;;;;;;4874720;29;20530;-35
2022/09/12 00:57:51;;;;;;;2.28;1.48;;;16.10;61.40;;;;;;4879088;29;20237;-36
2022/09/12 01:00:24;;;;;;;2.40;1.80;;;16.20;61.40;;;;;;4879482;29;20931;-35
2022/09/12 01:02:57;;;;;;;3.60;1.65;;;16.20;61.40;;;;;;4879594;29;20662;-36
2022/09/12 01:05:32;;;;;;;2.10;1.80;;;16.20;61.30;;;;;;4879126;29;20197;-35
2022/09/12 01:08:05;;;;;;;1.90;1.70;;;16.30;61.40;;;;;;4879677;29;20228;-35
2022/09/12 01:10:39;;;;;;;2.78;1.70;;;16.30;61.40;;;;;;4878777;29;20201;-37
2022/09/12 01:13:10;;;;;;;2.33;1.90;;;16.30;61.40;;;;;;4879404;29;20205;-36
2022/09/12 01:15:42;;;;;;;2.45;1.60;;;16.40;61.40;;;;;;4878804;29;20216;-35
2022/09/12 01:18:20;;;;;;;2.25;1.80;;;16.40;61.40;;;;;;4879909;29;20205;-36
2022/09/12 01:21:03;;;;;;;2.22;1.67;;;16.40;61.40;;;;;;4878581;29;20562;-35
2022/09/12 01:23:58;;;;;;;2.42;1.40;;;16.50;61.40;;;;;;4879337;29;20209;-36
2022/09/12 01:26:52;;;;;;;1.60;1.50;;;16.50;61.40;;;;;;4859831;29;20245;-35
2022/09/12 01:29:42;;;;;;;1.98;1.60;;;16.50;61.30;;;;;;4865476;29;20951;-36
2022/09/12 01:32:22;;;;;;;2.22;1.50;;;16.50;61.10;;;;;;4880462;29;20225;-36
2022/09/12 01:35:00;;;;;;;2.10;1.48;;;16.50;61.10;;;;;;4888252;29;20193;-35
2022/09/12 01:37:37;;;;;;;1.70;1.58;;;16.60;61.20;;;;;;4897285;29;20229;-35
2022/09/12 01:40:15;;;;;;;2.22;1.70;;;16.60;61.20;;;;;;4896687;29;20212;-35
2022/09/12 01:42:55;;;;;;;1.60;1.50;;;16.60;61.20;;;;;;4897495;29;20212;-36
2022/09/12 01:45:31;;;;;;;2.13;1.60;;;16.70;61.30;;;;;;4874422;29;20209;-35
2022/09/12 01:48:09;;;;;;;2.33;1.42;;;16.70;61.30;;;;;;4859638;29;20222;-37
2022/09/12 01:50:45;;;;;;;3.05;1.55;;;16.70;61.30;;;;;;4875138;29;20201;-35
2022/09/12 01:53:21;;;;;;;2.20;1.83;;;16.70;61.20;;;;;;4878355;29;20210;-35
2022/09/12 01:55:57;;;;;;;2.22;1.45;;;16.70;61.20;;;;;;4877929;29;20240;-38
2022/09/12 01:58:33;;;;;;;1.85;1.60;;;16.70;61.20;;;;;;4883068;29;20193;-42
2022/09/12 02:01:08;;;;;;;1.60;1.45;;;16.80;61.10;;;;;;4896764;29;20221;-35
2022/09/12 02:03:45;;;;;;;1.60;1.50;;;16.80;61.20;;;;;;4896300;29;20547;-35
2022/09/12 02:06:21;;;;;;;2.65;1.60;;;16.80;61.20;;;;;;4885488;29;20228;-42
2022/09/12 02:08:55;;;;;;;2.47;1.92;;;16.80;61.30;;;;;;4877657;29;20233;-38
2022/09/12 02:11:26;;;;;;;2.25;1.63;;;16.90;61.30;;;;;;4874650;29;20209;-36
2022/09/12 02:14:01;;;;;;;2.42;1.40;;;16.90;61.30;;;;;;4877072;29;20219;-38
2022/09/12 02:16:36;;;;;;;1.85;1.40;;;16.90;61.30;;;;;;4887031;29;20248;-36
2022/09/12 02:19:12;;;;;;;1.80;1.48;;;16.90;61.30;;;;;;4878346;29;20201;-41
2022/09/12 02:21:48;;;;;;;1.92;1.73;;;16.90;61.30;;;;;;4878120;29;20696;-35
2022/09/12 02:24:19;;;;;;;2.35;1.40;;;17.00;61.30;;;;;;4878275;29;20201;-36
2022/09/12 02:26:52;;;;;;;1.85;1.63;;;17.00;61.30;;;;;;4876629;29;20217;-39
2022/09/12 02:29:23;;;;;;;2.45;1.48;;;17.00;61.30;;;;;;4877249;29;20218;-35
2022/09/12 02:31:59;;;;;;;1.98;1.63;;;17.00;61.20;;;;;;4882924;29;20216;-35
2022/09/12 02:34:48;;;;;;;2.20;1.73;;;17.00;61.20;;;;;;4877881;29;20823;-36
2022/09/12 02:37:26;;;;;;;1.50;1.40;;;17.10;61.10;;;;;;4877779;29;20221;-38
2022/09/12 02:39:58;;;;;;;1.67;1.30;;;17.10;61.10;;;;;;4877532;29;20197;-35
2022/09/12 02:42:28;;;;;;;1.60;1.45;;;17.10;61.10;;;;;;4877858;29;20205;-37
2022/09/12 02:45:00;;;;;;;2.08;1.52;;;17.10;61.00;;;;;;4877720;29;20198;-37
2022/09/12 02:47:35;;;;;;;2.13;1.63;;;17.10;61.00;;;;;;4877583;29;20221;-37
2022/09/12 02:50:09;;;;;;;2.10;1.67;;;17.20;61.10;;;;;;4877280;29;20228;-35
2022/09/12 02:52:40;;;;;;;1.95;1.70;;;17.20;61.90;;;;;;4877995;29;20228;-37
2022/09/12 02:55:12;;;;;;;1.75;1.65;;;17.20;61.10;;;;;;4876906;29;20428;-35
2022/09/12 02:57:43;;;;;;;1.63;1.35;;;17.20;61.10;;;;;;4877015;29;20370;-36
2022/09/12 03:00:14;;;;;;;1.70;1.48;;;17.20;61.10;;;;;;4876469;29;20212;-35
2022/09/12 03:03:10;;;;;;;1.48;1.38;;;17.30;61.00;;;;;;4877152;29;20266;-36
2022/09/12 03:05:48;;;;;;;2.13;1.30;;;17.30;60.90;;;;;;4876699;29;20198;-36
2022/09/12 03:08:34;;;;;;;1.52;1.35;;;17.30;60.80;;;;;;4876348;29;20236;-37
2022/09/12 03:11:16;;;;;;;1.50;1.38;;;17.30;60.80;;;;;;4880860;29;20200;-36
2022/09/12 03:13:55;;;;;;;1.88;1.40;;;17.30;60.70;;;;;;4894451;29;20197;-38
2022/09/12 03:16:35;;;;;;;1.55;1.40;;;17.40;60.80;;;;;;4894247;29;20217;-36
2022/09/12 03:19:14;;;;;;;1.50;1.40;;;17.40;60.80;;;;;;4893946;29;20205;-35
2022/09/12 03:21:54;;;;;;;1.48;1.38;;;17.50;60.90;;;;;;4890766;29;20212;-36
2022/09/12 03:24:32;;;;;;;2.83;1.70;;;17.40;61.00;;;;;;4874783;29;20197;-36
2022/09/12 03:27:10;;;;;;;2.33;1.75;;;17.50;61.20;;;;;;4879221;29;20228;-42
2022/09/12 03:29:42;;;;;;;2.47;1.48;;;17.50;61.20;;;;;;4876044;29;20225;-35
2022/09/12 03:32:13;;;;;;;1.50;1.40;;;17.50;61.10;;;;;;4876196;29;20201;-35
2022/09/12 03:34:44;;;;;;;2.08;1.48;;;17.50;61.10;;;;;;4877235;29;20204;-36
2022/09/12 03:37:16;;;;;;;1.65;1.50;;;17.50;61.10;;;;;;4877678;29;20292;-38
2022/09/12 03:39:47;;;;;;;2.20;1.63;;;17.50;61.00;;;;;;4876708;29;20213;-35
2022/09/12 03:42:17;;;;;;;2.03;1.83;;;17.60;61.00;;;;;;4876729;29;20209;-35
2022/09/12 03:44:48;;;;;;;1.98;1.67;;;17.60;61.00;;;;;;4876665;29;20681;-37
2022/09/12 03:47:19;;;;;;;2.63;1.60;;;17.60;60.90;;;;;;4875554;29;20225;-39
2022/09/12 03:49:51;;;;;;;2.25;1.67;;;17.60;60.90;;;;;;4876660;29;20229;-35
2022/09/12 03:52:24;;;;;;;3.05;1.80;;;17.60;61.00;;;;;;4876593;29;20200;-35
2022/09/12 03:54:54;;;;;;;2.05;1.80;;;17.70;61.10;;;;;;4876652;29;20217;-36
2022/09/12 03:57:25;;;;;;;1.88;1.60;;;17.60;61.00;;;;;;4875902;29;20876;-38
2022/09/12 03:59:56;;;;;;;2.38;1.60;;;17.60;61.00;;;;;;4875972;29;20209;-38
2022/09/12 04:02:26;;;;;;;1.77;1.60;;;17.60;60.90;;;;;;4875605;29;20197;-36
2022/09/12 04:04:57;;;;;;;2.00;1.52;;;17.70;61.10;;;;;;4876530;29;20213;-40
2022/09/12 04:07:30;;;;;;;1.83;1.63;;;17.70;61.00;;;;;;4880360;29;20220;-35
2022/09/12 04:10:01;;;;;;;1.98;1.80;;;17.70;61.00;;;;;;4894473;29;20236;-35
2022/09/12 04:12:34;;;;;;;1.67;1.50;;;17.70;60.90;;;;;;4895206;29;20679;-36
2022/09/12 04:15:05;;;;;;;2.00;1.83;;;17.70;60.80;;;;;;4895442;29;20672;-37
2022/09/12 04:17:36;;;;;;;1.98;1.50;;;17.70;60.80;;;;;;4888212;29;20213;-35
2022/09/12 04:20:07;;;;;;;2.20;1.98;;;17.70;60.80;;;;;;4879797;29;20719;-36
2022/09/12 04:22:40;;;;;;;1.60;1.50;;;17.70;60.70;;;;;;4879379;29;20198;-36
2022/09/12 04:25:12;;;;;;;2.55;1.83;;;17.70;60.80;;;;;;4879657;29;20589;-38
2022/09/12 04:27:43;;;;;;;1.70;1.60;;;17.80;60.80;;;;;;4879183;29;20217;-36
2022/09/12 04:30:14;;;;;;;1.92;1.65;;;17.80;60.80;;;;;;4879645;29;20233;-35
2022/09/12 04:32:45;;;;;;;2.30;1.70;;;17.80;61.60;;;;;;4879430;29;20210;-36
2022/09/12 04:35:15;;;;;;;2.20;1.85;;;17.80;60.80;;;;;;4879806;29;20198;-36
2022/09/12 04:37:48;;;;;;;3.95;1.75;;;17.80;60.80;;;;;;4879912;29;20217;-36
2022/09/12 04:40:18;;;;;;;2.15;1.63;;;17.80;60.80;;;;;;4878884;29;20212;-36
2022/09/12 04:42:49;;;;;;;1.67;1.58;;;17.80;60.70;;;;;;4879759;29;20205;-35
2022/09/12 04:45:20;;;;;;;2.15;1.88;;;17.80;60.70;;;;;;4880058;29;20213;-35
2022/09/12 04:47:50;;;;;;;1.70;1.42;;;17.80;60.60;;;;;;4879329;29;20217;-36
2022/09/12 04:50:21;;;;;;;2.28;1.83;;;17.80;60.70;;;;;;4879739;29;20233;-35
2022/09/12 04:52:56;;;;;;;1.95;1.75;;;17.80;60.60;;;;;;4881579;29;20197;-37
2022/09/12 04:55:27;;;;;;;2.15;1.80;;;17.80;60.60;;;;;;4879776;29;20209;-40
2022/09/12 04:57:57;;;;;;;1.92;1.73;;;17.80;60.60;;;;;;4879933;29;20200;-36
2022/09/12 05:00:28;;;;;;;1.55;1.40;;;17.80;60.60;;;;;;4880369;29;20205;-40
2022/09/12 05:02:59;;;;;;;1.73;1.60;;;17.80;60.60;;;;;;4879751;29;20202;-35
2022/09/12 05:05:29;;;;;;;2.00;1.70;;;17.80;60.50;;;;;;4878972;29;20684;-38
2022/09/12 05:08:02;;;;;;;1.70;1.60;;;17.80;60.60;;;;;;4879341;29;20672;-35
2022/09/12 05:10:33;;;;;;;1.80;1.60;;;17.80;60.60;;;;;;4878988;29;20241;-40
2022/09/12 05:13:03;;;;;;;2.97;1.58;;;17.80;60.60;;;;;;4879631;29;20208;-36
2022/09/12 05:15:37;;;;;;;1.75;1.52;;;17.80;60.50;;;;;;4879384;29;20213;-37
2022/09/12 05:18:07;;;;;;;2.60;1.85;;;17.90;60.60;;;;;;4881368;29;20193;-35
2022/09/12 05:20:38;;;;;;;1.65;1.42;;;17.80;60.50;;;;;;4894121;29;20220;-36
2022/09/12 05:23:10;;;;;;;2.40;1.67;;;17.90;60.50;;;;;;4892549;29;20205;-37
2022/09/12 05:25:41;;;;;;;1.92;1.73;;;17.90;60.50;;;;;;4878825;29;20209;-36
2022/09/12 05:28:12;;;;;;;2.95;2.03;;;17.90;60.50;;;;;;4878461;29;20205;-39
2022/09/12 05:30:42;;;;;;;2.10;1.80;;;17.90;60.50;;;;;;4880245;29;20232;-35
2022/09/12 05:33:13;;;;;;;1.98;1.65;;;17.90;60.50;;;;;;4884226;29;20211;-37
2022/09/12 05:35:44;;;;;;;2.17;1.60;;;17.90;60.40;;;;;;4897547;29;20205;-36
2022/09/12 05:38:16;;;;;;;1.92;1.70;;;17.90;60.40;;;;;;4897066;29;20201;-40
2022/09/12 05:40:47;;;;;;;2.05;1.55;;;17.90;60.40;;;;;;4896467;29;20283;-35
2022/09/12 05:43:19;;;;;;;1.67;1.52;;;17.90;60.50;;;;;;4896377;29;20207;-36
2022/09/12 05:45:49;;;;;;;2.08;1.80;;;17.80;60.40;;;;;;4897322;29;20646;-36
2022/09/12 05:48:20;;;;;;;1.50;1.40;;;17.80;60.40;;;;;;4897432;29;20197;-36
2022/09/12 05:50:51;;;;;;;2.30;1.75;;;17.90;60.50;;;;;;4896867;29;20228;-42
2022/09/12 05:53:27;;;;;;;2.05;1.88;;;17.90;60.50;;;;;;4892005;29;20209;-37
2022/09/12 05:56:06;;;;;;;2.10;1.70;;;17.90;60.50;;;;;;4878321;29;20649;-37
2022/09/12 05:58:37;;;;;;;1.90;1.80;;;17.90;60.50;;;;;;4879226;29;20198;-43
2022/09/12 06:01:10;;;;;;;2.45;1.67;;;17.90;60.40;;;;;;4878724;29;20202;-40
2022/09/12 06:03:43;;;;;;;2.90;2.25;;;17.90;60.40;;;;;;4878201;29;20197;-41
2022/09/12 06:06:15;;;;;;;2.83;1.80;;;17.90;60.40;;;;;;4877945;29;20237;-37
2022/09/12 06:08:49;;;;;;;2.78;2.30;;;17.90;60.40;;;;;;4877921;29;20200;-43
2022/09/12 06:11:21;;;;;;;3.90;3.13;;;17.90;60.40;;;;;;4877329;29;20244;-42
2022/09/12 06:13:53;;;;;;;2.88;2.28;;;17.90;60.60;;;;;;4878247;29;20193;-35
2022/09/12 06:16:24;;;;;;;2.80;2.60;;;17.90;60.60;;;;;;4878672;29;20234;-37
2022/09/12 06:18:56;;;;;;;3.35;2.28;;;17.90;60.60;;;;;;4878703;29;20201;-42
2022/09/12 06:21:27;;;;;;;3.20;2.38;;;17.90;60.50;;;;;;4878584;29;20214;-38
2022/09/12 06:24:00;;;;;;;2.85;2.55;;;17.90;60.50;;;;;;4877441;29;20212;-40
2022/09/12 06:26:32;;;;;;;3.28;2.75;;;17.90;60.50;;;;;;4878304;29;20217;-39
2022/09/12 06:29:04;;;;;;;3.47;2.63;;;17.90;60.50;;;;;;4877565;29;20197;-35
2022/09/12 06:31:36;;;;;;;2.75;2.55;;;17.90;60.60;;;;;;4878105;29;20737;-36
2022/09/12 06:34:08;;;;;;;2.83;2.60;;;17.90;60.60;;;;;;4877652;29;20201;-36
2022/09/12 06:36:41;;;;;;;2.70;2.30;;;17.90;60.60;;;;;;4878264;29;20586;-36
2022/09/12 06:39:15;;;;;;;3.30;2.63;;;17.90;60.60;;;;;;4877534;29;20201;-35
2022/09/12 06:41:47;;;;;;;2.88;2.58;;;17.90;60.60;;;;;;4876958;29;20209;-36
2022/09/12 06:44:19;;;;;;;3.88;2.70;;;17.90;61.30;;;;;;4877194;29;20225;-36
2022/09/12 06:46:50;;;;;;;2.70;2.45;;;17.80;60.50;;;;;;4877644;29;20225;-36
2022/09/12 06:49:20;;;;;;;2.80;2.55;;;17.90;60.50;;;;;;4877760;29;20197;-35
2022/09/12 06:51:51;;;;;;;3.40;3.00;;;17.80;60.50;;;;;;4877927;29;20197;-38
2022/09/12 06:54:25;;;;;;;3.33;2.70;;;17.80;60.50;;;;;;4878333;29;20227;-37
2022/09/12 06:56:55;;;;;;;3.05;2.60;;;17.80;60.40;;;;;;4877140;29;20281;-37
2022/09/12 06:59:26;;;;;;;3.47;3.05;;;17.80;60.40;;;;;;4877620;29;20198;-36
2022/09/12 07:01:57;;;;;;;3.95;3.20;;;17.80;60.70;;;;;;4877668;29;20323;-36
2022/09/12 07:04:27;;;;;;;3.28;2.97;;;17.80;61.00;;;;;;4877114;29;20669;-37
2022/09/12 07:06:58;;;;;;;4.47;2.75;;;17.80;61.10;;;;;;4876658;29;20222;-36
2022/09/12 07:09:31;;;;;;;3.70;3.00;;;17.80;61.00;;;;;;4877399;29;20197;-37
2022/09/12 07:12:03;;;;;;;4.40;3.45;;;17.80;60.90;;;;;;4877566;29;20662;-39
2022/09/12 07:14:34;;;;;;;3.20;2.90;;;17.80;60.80;;;;;;4877712;29;20261;-39
2022/09/12 07:17:05;;;;;;;3.08;2.78;;;17.80;60.80;;;;;;4877174;29;20229;-36
2022/09/12 07:19:36;;;;;;;3.05;2.75;;;17.80;60.70;;;;;;4877255;29;20198;-35
2022/09/12 07:22:06;;;;;;;3.33;3.03;;;17.80;60.80;;;;;;4876868;29;20688;-38
2022/09/12 07:24:40;;;;;;;3.35;2.97;;;17.80;60.70;;;;;;4878095;29;20205;-35
2022/09/12 07:27:10;;;;;;;2.90;2.70;;;17.80;60.70;;;;;;4875178;29;20253;-40
2022/09/12 07:29:41;;;;;;;3.28;2.70;;;17.80;60.70;;;;;;4874488;29;20197;-35
2022/09/12 07:32:12;;;;;;;2.90;2.60;;;17.80;60.60;;;;;;4874348;29;20201;-35
2022/09/12 07:34:42;;;;;;;3.15;2.80;;;17.80;60.60;;;;;;4877005;29;20650;-35
2022/09/12 07:37:13;;;;;;;3.75;2.83;;;17.80;60.60;;;;;;4874426;29;20226;-38
2022/09/12 07:39:46;;;;;;;3.22;2.60;;;17.70;60.50;;;;;;4887571;29;20204;-36
2022/09/12 07:42:17;;;;;;;4.20;2.95;;;17.70;60.50;;;;;;4894063;29;20271;-36
2022/09/12 07:44:47;;;;;;;2.75;2.38;;;17.70;60.50;;;;;;4894013;29;20672;-36
2022/09/12 07:47:18;;;;;;;3.42;2.65;;;17.70;60.50;;;;;;4893929;29;20685;-35
2022/09/12 07:49:49;;;;;;;3.08;2.63;;;17.70;60.50;;;;;;4894232;29;20205;-35
2022/09/12 07:52:19;;;;;;;3.30;2.50;;;17.60;60.40;;;;;;4894752;29;20656;-36
2022/09/12 07:54:52;;;;;;;4.15;2.55;;;17.60;60.40;;;;;;4890215;29;20813;-36
2022/09/12 07:57:22;;;;;;;3.88;2.90;;;17.60;60.40;;;;;;4894035;29;20217;-36
2022/09/12 07:59:53;;;;;;;2.72;2.53;;;17.60;60.40;;;;;;4893475;29;20204;-35
2022/09/12 08:02:24;;;;;;;2.95;2.53;;;17.60;60.40;;;;;;4893471;29;20200;-36
2022/09/12 08:04:54;;;;;;;3.58;2.83;;;17.60;60.30;;;;;;4893836;29;20212;-37
2022/09/12 08:07:25;;;;;;;2.95;2.65;;;17.60;60.30;;;;;;4894617;29;20221;-42
2022/09/12 08:09:58;;;;;;;3.38;2.60;;;17.60;60.30;;;;;;4893688;29;20694;-36
2022/09/12 08:12:31;;;;;;;2.70;2.30;;;17.60;60.20;;;;;;4894025;29;20208;-36
2022/09/12 08:15:01;;;;;;;3.67;3.05;;;17.60;60.30;;;;;;4894226;29;20196;-36
2022/09/12 08:17:32;;;;;;;3.38;2.63;;;17.60;60.30;;;;;;4894213;29;20224;-36
2022/09/12 08:20:03;;;;;;;3.33;2.72;;;17.50;60.20;;;;;;4893644;29;20208;-36
2022/09/12 08:22:34;;;;;;;3.20;2.90;;;17.50;60.20;;;;;;4893477;29;20208;-35
2022/09/12 08:25:07;;;;;;;2.83;2.40;;;17.50;60.30;;;;;;4893408;29;20207;-35
2022/09/12 08:27:38;;;;;;;3.70;2.65;;;17.50;60.30;;;;;;4879174;29;20217;-36
2022/09/12 08:30:09;;;;;;;2.65;2.45;;;17.50;60.30;;;;;;4875173;29;20316;-37
2022/09/12 08:32:40;;;;;;;3.40;2.70;;;17.40;60.20;;;;;;4875665;29;20206;-35
2022/09/12 08:35:11;;;;;;;3.83;3.42;;;17.50;60.20;;;;;;4874714;29;20571;-35
2022/09/12 08:37:41;;;;;;;3.25;2.95;;;17.40;60.10;;;;;;4874816;29;20587;-35
2022/09/12 08:40:18;;;;;;;4.10;2.90;;;17.50;60.10;;;;;;4889352;29;20736;-35
2022/09/12 08:43:00;;;;;;;3.85;2.92;;;17.40;60.10;;;;;;4894327;29;20248;-35
2022/09/12 08:45:36;;;;;;;3.38;2.88;;;17.40;60.10;;;;;;4894224;29;20229;-35
2022/09/12 08:48:10;;;;;;;3.38;3.08;;;17.40;60.00;;;;;;4888005;29;20233;-35
2022/09/12 08:50:43;;;;;;;3.85;3.00;;;17.40;60.10;;;;;;4875095;29;20221;-36
2022/09/12 08:53:17;;;;;;;3.38;3.08;;;17.30;60.00;;;;;;4875010;29;20212;-35
2022/09/12 08:55:57;;;;;;;3.22;2.88;;;17.30;60.00;;;;;;4892406;29;20216;-39
2022/09/12 08:58:29;;;;;;;2.90;2.60;;;17.30;60.10;;;;;;4894010;29;20630;-35
2022/09/12 09:01:07;;;;;;;3.28;2.97;;;17.30;60.10;;;;;;4893830;29;20212;-36
2022/09/12 09:03:52;;;;;;;3.63;2.75;;;17.30;60.00;;;;;;4893805;29;20232;-37
2022/09/12 09:06:35;;;;;;;3.15;2.78;;;17.30;60.10;;;;;;4896014;29;20223;-35
2022/09/12 09:09:11;;;;;;;3.85;3.15;;;17.30;60.00;;;;;;4896255;29;20203;-35
2022/09/12 09:11:55;;;;;;;4.15;3.40;;;17.20;60.00;;;;;;4896688;29;20244;-38
2022/09/12 09:14:48;;;;;;;3.50;3.20;;;17.20;60.00;;;;;;4896418;29;20284;-35
2022/09/12 09:17:26;;;;;;;4.45;3.00;;;17.20;59.90;;;;;;4897520;29;20281;-35
2022/09/12 09:20:03;;;;;;;3.70;3.33;;;17.20;59.90;;;;;;4897271;29;20670;-36
2022/09/12 09:22:45;;;;;;;5.32;4.53;;;17.20;60.20;;;;;;4897063;29;20700;-41
2022/09/12 09:25:22;;;;;;;6.43;5.28;;;17.20;60.60;;;;;;4890290;29;20208;-36
2022/09/12 09:28:00;;;;;;;6.55;5.28;;;17.10;60.70;;;;;;4896832;29;20220;-36
2022/09/12 09:30:31;;;;;;;6.65;5.57;;;17.10;60.70;;;;;;4897041;29;20283;-38
2022/09/12 09:33:04;;;;;;;6.53;5.82;;;17.10;60.60;;;;;;4897292;29;20213;-36
2022/09/12 09:35:45;;;;;;;6.32;5.72;;;17.10;60.50;;;;;;4895981;29;20204;-40
2022/09/12 09:38:26;;;;;;;6.20;4.85;;;17.10;60.50;;;;;;4895312;29;20205;-42
2022/09/12 09:41:20;;;;;;;5.55;5.05;;;17.10;60.40;;;;;;4896300;29;21456;-36
2022/09/12 09:43:53;;;;;;;5.63;5.10;;;17.10;60.30;;;;;;4896282;29;20212;-37
2022/09/12 09:46:23;;;;;;;5.25;4.75;;;17.10;60.20;;;;;;4896488;29;20227;-39
2022/09/12 09:48:55;;;;;;;6.22;5.05;;;17.10;60.20;;;;;;4891792;29;20200;-36
2022/09/12 09:51:32;;;;;;;5.57;4.95;;;17.00;60.10;;;;;;4876428;29;20225;-36
2022/09/12 09:54:11;;;;;;;5.10;4.65;;;17.00;60.10;;;;;;4878947;29;20685;-41
2022/09/12 09:56:43;;;;;;;5.65;5.05;;;17.00;60.10;;;;;;4878343;29;20590;-40
2022/09/12 09:59:18;;;;;;;5.85;4.82;;;17.00;60.10;;;;;;4878400;29;20241;-42
2022/09/12 10:01:51;;;;;;;5.63;4.80;;;16.90;60.00;;;;;;4878452;29;20201;-36
2022/09/12 10:04:23;;;;;;;5.75;4.97;;;16.90;60.00;;;;;;4879144;29;20286;-36
2022/09/12 10:06:56;;;;;;;5.20;4.70;;;16.90;60.00;;;;;;4877966;29;20225;-37
2022/09/12 10:09:29;;;;;;;6.63;5.55;;;16.90;60.00;;;;;;4864501;29;20654;-43
2022/09/12 10:12:00;;;;;;;5.13;4.60;;;16.90;60.00;;;;;;4876963;29;20702;-41
2022/09/12 10:14:43;;;;;;;5.63;4.57;;;16.90;60.00;;;;;;4878441;29;20582;-37
2022/09/12 10:17:31;;;;;;;4.90;4.40;;;16.90;59.90;;;;;;4877731;29;20225;-36
2022/09/12 10:20:01;;;;;;;5.10;4.60;;;16.90;59.90;;;;;;4879434;29;20197;-37
2022/09/12 10:22:32;;;;;;;4.97;4.47;;;16.90;59.90;;;;;;4878101;29;20205;-37
2022/09/12 10:25:04;;;;;;;6.00;4.57;;;16.80;59.90;;;;;;4877688;29;20292;-36
2022/09/12 10:27:35;;;;;;;5.15;4.65;;;16.80;59.90;;;;;;4877914;29;20222;-41
2022/09/12 10:30:17;;;;;;;5.28;4.80;;;16.80;59.90;;;;;;4877484;29;20197;-40
2022/09/12 10:32:50;;;;;;;5.10;4.55;;;16.70;60.00;;;;;;4878206;29;20259;-36
2022/09/12 10:35:23;;;;;;;5.40;4.70;;;16.70;60.00;;;;;;4877549;29;20327;-36
2022/09/12 10:37:59;;;;;;;5.10;4.63;;;16.70;60.00;;;;;;4877372;29;20277;-40
2022/09/12 10:40:31;;;;;;;4.70;4.30;;;16.70;60.00;;;;;;4877506;29;20204;-38
2022/09/12 10:43:03;;;;;;;4.85;4.38;;;16.70;59.90;;;;;;4878025;29;20210;-36
2022/09/12 10:45:37;;;;;;;5.10;4.60;;;16.70;59.90;;;;;;4875970;29;20209;-37
2022/09/12 10:48:26;;;;;;;4.38;3.97;;;16.70;59.80;;;;;;4877619;29;20221;-37
2022/09/12 10:50:57;;;;;;;5.80;4.30;;;16.70;59.90;;;;;;4877520;29;20226;-37
2022/09/12 10:53:30;;;;;;;5.75;5.03;;;16.60;59.80;;;;;;4877195;29;20213;-36
2022/09/12 10:56:12;;;;;;;5.30;4.80;;;16.60;59.80;;;;;;4876849;29;20197;-37
2022/09/12 10:58:57;;;;;;;5.25;4.75;;;16.60;59.90;;;;;;4877824;29;20201;-36
2022/09/12 11:01:40;;;;;;;4.60;4.13;;;16.60;59.90;;;;;;4876799;29;20647;-37
2022/09/12 11:04:25;;;;;;;4.90;4.40;;;16.50;59.80;;;;;;4877414;29;20206;-36
2022/09/12 11:07:09;;;;;;;4.63;4.13;;;16.50;59.90;;;;;;4859144;29;20233;-38
2022/09/12 11:09:45;;;;;;;4.57;4.13;;;16.50;59.90;;;;;;4862417;29;20205;-39
2022/09/12 11:12:23;;;;;;;5.03;4.53;;;16.50;59.90;;;;;;4877868;29;20240;-37
2022/09/12 11:15:04;;;;;;;5.10;4.13;;;16.50;59.90;;;;;;4877439;29;20201;-37
2022/09/12 11:17:51;;;;;;;5.07;4.55;;;16.50;59.80;;;;;;4877706;29;20323;-36
2022/09/12 11:20:43;;;;;;;4.65;4.20;;;16.50;59.80;;;;;;4878109;29;20679;-36
2022/09/12 11:24:03;;;;;;;5.65;4.70;;;16.50;59.80;;;;;;4877070;29;20887;-38
2022/09/12 11:26:46;;;;;;;4.78;4.38;;;16.40;59.80;;;;;;4855332;29;20297;-36
2022/09/12 11:29:30;;;;;;;4.47;3.95;;;16.40;59.80;;;;;;4855758;29;20721;-45
2022/09/12 11:32:23;;;;;;;4.75;4.25;;;16.40;59.80;;;;;;4857924;29;20233;-37
2022/09/12 11:35:05;;;;;;;4.28;3.88;;;16.40;59.80;;;;;;4861057;29;20217;-38
2022/09/12 11:38:00;;;;;;;4.22;3.83;;;16.30;59.80;;;;;;4876472;29;20221;-36
2022/09/12 11:40:35;;;;;;;4.78;4.28;;;16.30;59.80;;;;;;4875704;29;20234;-35
2022/09/12 11:43:14;;;;;;;4.55;4.13;;;16.30;59.90;;;;;;4876215;29;20219;-36
2022/09/12 11:45:47;;;;;;;4.35;3.95;;;16.30;59.80;;;;;;4871367;29;20201;-36
2022/09/12 11:48:25;;;;;;;6.00;4.07;;;16.30;59.80;;;;;;4877123;29;20209;-38
2022/09/12 11:50:59;;;;;;;4.30;3.88;;;16.30;59.80;;;;;;4887588;29;20219;-36
2022/09/12 11:53:34;;;;;;;4.45;4.05;;;16.30;59.80;;;;;;4888810;29;20209;-36
2022/09/12 11:56:11;;;;;;;5.20;4.30;;;16.20;59.70;;;;;;4876531;29;20201;-36
2022/09/12 11:58:43;;;;;;;4.65;4.15;;;16.20;59.70;;;;;;4876489;29;20205;-36
2022/09/12 12:01:19;;;;;;;4.43;3.70;;;16.20;59.70;;;;;;4876708;29;20314;-37
2022/09/12 12:03:54;;;;;;;5.32;4.00;;;16.20;59.80;;;;;;4876206;29;20645;-36
2022/09/12 12:06:31;;;;;;;4.85;4.00;;;16.20;59.70;;;;;;4877215;29;20299;-36
2022/09/12 12:09:05;;;;;;;3.97;3.58;;;16.20;59.80;;;;;;4876381;29;20231;-51
2022/09/12 12:11:40;;;;;;;3.85;3.45;;;16.10;59.70;;;;;;4875824;29;20611;-45
2022/09/12 12:14:17;;;;;;;4.40;4.00;;;16.10;59.80;;;;;;4876900;29;20205;-48
2022/09/12 12:16:49;;;;;;;3.65;3.35;;;16.10;59.70;;;;;;4876578;29;20224;-36
2022/09/12 12:19:34;;;;;;;3.75;3.35;;;16.10;59.70;;;;;;4876850;29;20213;-36
2022/09/12 12:22:27;;;;;;;3.92;3.53;;;16.20;59.70;;;;;;4893993;29;20243;-36
2022/09/12 12:25:25;;;;;;;3.88;3.45;;;16.20;59.60;;;;;;4876007;29;20205;-40
2022/09/12 12:27:58;;;;;;;4.00;3.45;;;16.20;59.50;;;;;;4876757;29;20260;-36
2022/09/12 12:31:08;;;;;;;3.50;2.95;;;16.20;59.40;;;;;;4876985;29;20207;-42
2022/09/12 12:34:23;;;;;;;3.65;3.13;;;16.10;59.50;;;;;;4876802;29;20678;-36
2022/09/12 12:36:54;;;;;;;3.53;3.10;;;16.10;59.40;;;;;;4875188;29;20221;-36
2022/09/12 12:39:59;;;;;;;3.58;3.28;;;16.10;59.30;;;;;;4876313;29;20205;-37
2022/09/12 12:43:03;;;;;;;3.45;2.97;;;16.10;59.40;;;;;;4860403;29;20233;-35
2022/09/12 12:46:05;;;;;;;3.28;2.90;;;16.10;59.30;;;;;;4888749;29;20202;-36
2022/09/12 12:48:58;;;;;;;3.72;3.00;;;16.10;59.30;;;;;;4897650;29;20196;-35
2022/09/12 12:52:01;;;;;;;3.28;2.97;;;16.10;59.20;;;;;;4897641;29;20295;-40
2022/09/12 12:54:51;;;;;;;3.30;2.80;;;16.10;59.20;;;;;;4878574;29;20213;-38
2022/09/12 12:57:42;;;;;;;2.85;2.58;;;16.10;59.00;;;;;;4873470;29;20225;-36
2022/09/12 13:00:34;;;;;;;3.05;2.53;;;16.10;58.90;;;;;;4877812;29;20213;-37
2022/09/12 13:03:24;;;;;;;2.75;2.53;;;16.10;58.90;;;;;;4876260;29;20562;-40
2022/09/12 13:06:02;;;;;;;2.65;2.33;;;16.10;58.80;;;;;;4876274;29;20205;-36
2022/09/12 13:08:35;;;;;;;2.70;2.50;;;16.10;58.80;;;;;;4877731;29;20531;-47
2022/09/12 13:11:12;;;;;;;2.95;2.58;;;16.10;58.80;;;;;;4877252;29;20603;-36
2022/09/12 13:13:48;;;;;;;2.50;2.30;;;16.00;58.70;;;;;;4875084;29;20194;-36
2022/09/12 13:16:36;;;;;;;2.75;2.47;;;16.00;58.70;;;;;;4877268;29;20217;-36
2022/09/12 13:19:09;;;;;;;2.60;2.40;;;16.00;58.70;;;;;;4860066;29;20682;-36
2022/09/12 13:21:56;;;;;;;2.90;2.40;;;16.10;58.70;;;;;;4879419;29;20208;-36
2022/09/12 13:24:26;;;;;;;2.50;2.30;;;16.10;58.70;;;;;;4882434;29;20214;-41
2022/09/12 13:26:57;;;;;;;2.70;2.47;;;16.10;58.60;;;;;;4877865;29;20291;-36
2022/09/12 13:29:29;;;;;;;2.92;2.50;;;16.10;58.50;;;;;;4882104;29;20228;-36
2022/09/12 13:32:01;;;;;;;3.33;2.30;;;16.10;58.30;;;;;;4897270;29;20700;-36